sensor_id;sensor_type;location;lat;lon;timestamp;temperature;humidity
13223;DHT22;6676;45.192;5.722;2023-02-28T00:02:52;4.10;99.90
13223;DHT22;6676;45.192;5.722;2023-02-28T00:05:43;4.10;99.90
13223;DHT22;6676;45.192;5.722;2023-02-28T00:08:35;4.10;99.90
13223;DHT22;6676;45.192;5.722;2023-02-28T00:11:26;4.10;99.90
13223;DHT22;6676;45.192;5.722;2023-02-28T00:14:35;4.10;99.90
13223;DHT22;6676;45.192;5.722;2023-02-28T00:17:27;4.10;99.90
13223;DHT22;6676;45.192;5.722;2023-02-28T00:20:19;4.10;99.90
13223;DHT22;6676;45.192;5.722;2023-02-28T00:23:11;4.10;99.90
13223;DHT22;6676;45.192;5.722;2023-02-28T00:26:03;4.10;99.90
13223;DHT22;6676;45.192;5.722;2023-02-28T00:28:55;4.10;99.90
13223;DHT22;6676;45.192;5.722;2023-02-28T00:31:46;4.10;99.90
13223;DHT22;6676;45.192;5.722;2023-02-28T00:34:55;4.10;99.90
13223;DHT22;6676;45.192;5.722;2023-02-28T00:37:48;4.10;99.90
13223;DHT22;6676;45.192;5.722;2023-02-28T00:40:40;4.10;99.90
13223;DHT22;6676;45.192;5.722;2023-02-28T00:43:34;4.10;99.90
13223;DHT22;6676;45.192;5.722;2023-02-28T00:46:25;4.20;99.90
13223;DHT22;6676;45.192;5.722;2023-02-28T00:49:19;4.20;99.90
13223;DHT22;6676;45.192;5.722;2023-02-28T00:52:11;4.20;99.90
13223;DHT22;6676;45.192;5.722;2023-02-28T00:55:03;4.10;99.90
13223;DHT22;6676;45.192;5.722;2023-02-28T00:57:59;4.10;99.90
13223;DHT22;6676;45.192;5.722;2023-02-28T01:00:51;4.10;99.90
13223;DHT22;6676;45.192;5.722;2023-02-28T01:03:46;4.10;99.90
13223;DHT22;6676;45.192;5.722;2023-02-28T01:06:38;4.10;99.90
13223;DHT22;6676;45.192;5.722;2023-02-28T01:09:31;4.10;99.90
13223;DHT22;6676;45.192;5.722;2023-02-28T01:12:23;4.00;99.90
13223;DHT22;6676;45.192;5.722;2023-02-28T01:15:15;4.00;99.90
13223;DHT22;6676;45.192;5.722;2023-02-28T01:18:07;4.00;99.90
13223;DHT22;6676;45.192;5.722;2023-02-28T01:21:02;4.00;99.90
13223;DHT22;6676;45.192;5.722;2023-02-28T01:23:52;4.00;99.90
13223;DHT22;6676;45.192;5.722;2023-02-28T01:26:45;4.00;99.90
13223;DHT22;6676;45.192;5.722;2023-02-28T01:29:36;4.00;99.90
13223;DHT22;6676;45.192;5.722;2023-02-28T01:32:28;4.00;99.90
13223;DHT22;6676;45.192;5.722;2023-02-28T01:35:20;3.90;99.90
13223;DHT22;6676;45.192;5.722;2023-02-28T01:38:12;3.90;99.90
13223;DHT22;6676;45.192;5.722;2023-02-28T01:41:06;3.90;99.90
13223;DHT22;6676;45.192;5.722;2023-02-28T01:44:04;3.90;99.90
13223;DHT22;6676;45.192;5.722;2023-02-28T01:46:56;3.90;99.90
13223;DHT22;6676;45.192;5.722;2023-02-28T01:49:47;3.80;99.90
13223;DHT22;6676;45.192;5.722;2023-02-28T01:52:39;3.80;99.90
13223;DHT22;6676;45.192;5.722;2023-02-28T01:58:13;3.70;99.90
13223;DHT22;6676;45.192;5.722;2023-02-28T02:01:05;3.70;99.90
13223;DHT22;6676;45.192;5.722;2023-02-28T02:03:57;3.70;99.90
13223;DHT22;6676;45.192;5.722;2023-02-28T02:06:50;3.60;99.90
13223;DHT22;6676;45.192;5.722;2023-02-28T02:09:43;3.60;99.90
13223;DHT22;6676;45.192;5.722;2023-02-28T02:12:43;3.60;99.90
13223;DHT22;6676;45.192;5.722;2023-02-28T02:15:38;3.60;99.90
13223;DHT22;6676;45.192;5.722;2023-02-28T02:21:26;3.60;99.90
13223;DHT22;6676;45.192;5.722;2023-02-28T02:24:49;3.60;99.90
13223;DHT22;6676;45.192;5.722;2023-02-28T02:34:47;3.50;99.90
13223;DHT22;6676;45.192;5.722;2023-02-28T02:37:45;3.60;99.90
13223;DHT22;6676;45.192;5.722;2023-02-28T02:40:40;3.50;99.90
13223;DHT22;6676;45.192;5.722;2023-02-28T02:43:34;3.50;99.90
13223;DHT22;6676;45.192;5.722;2023-02-28T02:46:28;3.60;99.90
13223;DHT22;6676;45.192;5.722;2023-02-28T02:49:24;3.60;99.90
13223;DHT22;6676;45.192;5.722;2023-02-28T02:52:20;3.60;99.90
13223;DHT22;6676;45.192;5.722;2023-02-28T02:58:04;3.60;99.90
13223;DHT22;6676;45.192;5.722;2023-02-28T03:00:59;3.60;99.90
13223;DHT22;6676;45.192;5.722;2023-02-28T03:03:52;3.60;99.90
13223;DHT22;6676;45.192;5.722;2023-02-28T03:06:44;3.50;99.90
13223;DHT22;6676;45.192;5.722;2023-02-28T03:09:35;3.50;99.90
13223;DHT22;6676;45.192;5.722;2023-02-28T03:12:32;3.50;99.90
13223;DHT22;6676;45.192;5.722;2023-02-28T03:15:27;3.40;99.90
13223;DHT22;6676;45.192;5.722;2023-02-28T03:18:22;3.50;99.90
13223;DHT22;6676;45.192;5.722;2023-02-28T03:24:03;3.40;99.90
13223;DHT22;6676;45.192;5.722;2023-02-28T03:26:58;3.50;99.90
13223;DHT22;6676;45.192;5.722;2023-02-28T03:29:54;3.50;99.90
13223;DHT22;6676;45.192;5.722;2023-02-28T03:35:29;3.50;99.90
13223;DHT22;6676;45.192;5.722;2023-02-28T03:38:24;3.50;99.90
13223;DHT22;6676;45.192;5.722;2023-02-28T03:41:19;3.50;99.90
13223;DHT22;6676;45.192;5.722;2023-02-28T03:44:13;3.50;99.90
13223;DHT22;6676;45.192;5.722;2023-02-28T03:47:08;3.50;99.90
13223;DHT22;6676;45.192;5.722;2023-02-28T03:50:03;3.40;99.90
13223;DHT22;6676;45.192;5.722;2023-02-28T03:53:01;3.40;99.90
13223;DHT22;6676;45.192;5.722;2023-02-28T03:55:57;3.40;99.90
13223;DHT22;6676;45.192;5.722;2023-02-28T03:58:53;3.40;99.90
13223;DHT22;6676;45.192;5.722;2023-02-28T04:01:48;3.40;99.90
13223;DHT22;6676;45.192;5.722;2023-02-28T04:04:40;3.40;99.90
13223;DHT22;6676;45.192;5.722;2023-02-28T04:07:33;3.30;99.90
13223;DHT22;6676;45.192;5.722;2023-02-28T04:10:25;3.30;99.90
13223;DHT22;6676;45.192;5.722;2023-02-28T04:13:16;3.30;99.90
13223;DHT22;6676;45.192;5.722;2023-02-28T04:16:08;3.30;99.90
13223;DHT22;6676;45.192;5.722;2023-02-28T04:19:04;3.30;99.90
13223;DHT22;6676;45.192;5.722;2023-02-28T04:21:56;3.20;99.90
13223;DHT22;6676;45.192;5.722;2023-02-28T04:24:47;3.20;99.90
13223;DHT22;6676;45.192;5.722;2023-02-28T04:27:39;3.30;99.90
13223;DHT22;6676;45.192;5.722;2023-02-28T04:30:31;3.20;99.90
13223;DHT22;6676;45.192;5.722;2023-02-28T04:33:23;3.40;99.90
13223;DHT22;6676;45.192;5.722;2023-02-28T04:36:14;3.50;99.90
13223;DHT22;6676;45.192;5.722;2023-02-28T04:39:07;3.50;99.90
13223;DHT22;6676;45.192;5.722;2023-02-28T04:41:59;3.50;99.90
13223;DHT22;6676;45.192;5.722;2023-02-28T04:44:50;3.40;99.90
13223;DHT22;6676;45.192;5.722;2023-02-28T04:47:42;3.40;99.90
13223;DHT22;6676;45.192;5.722;2023-02-28T04:50:33;3.30;99.90
13223;DHT22;6676;45.192;5.722;2023-02-28T04:53:25;3.30;99.90
13223;DHT22;6676;45.192;5.722;2023-02-28T04:56:17;3.20;99.90
13223;DHT22;6676;45.192;5.722;2023-02-28T04:59:09;3.10;99.90
13223;DHT22;6676;45.192;5.722;2023-02-28T05:02:01;3.30;99.90
13223;DHT22;6676;45.192;5.722;2023-02-28T05:04:54;3.30;99.90
13223;DHT22;6676;45.192;5.722;2023-02-28T05:07:48;3.20;99.90
13223;DHT22;6676;45.192;5.722;2023-02-28T05:10:39;3.20;99.90
13223;DHT22;6676;45.192;5.722;2023-02-28T05:13:31;3.30;99.90
13223;DHT22;6676;45.192;5.722;2023-02-28T05:16:23;3.20;99.90
13223;DHT22;6676;45.192;5.722;2023-02-28T05:19:15;3.20;99.90
13223;DHT22;6676;45.192;5.722;2023-02-28T05:22:13;3.10;99.90
13223;DHT22;6676;45.192;5.722;2023-02-28T05:25:06;3.10;99.90
13223;DHT22;6676;45.192;5.722;2023-02-28T05:27:58;3.10;99.90
13223;DHT22;6676;45.192;5.722;2023-02-28T05:30:50;3.00;99.90
13223;DHT22;6676;45.192;5.722;2023-02-28T05:33:41;3.00;99.90
13223;DHT22;6676;45.192;5.722;2023-02-28T05:36:36;3.00;99.90
13223;DHT22;6676;45.192;5.722;2023-02-28T05:39:26;3.10;99.90
13223;DHT22;6676;45.192;5.722;2023-02-28T05:42:18;3.20;99.90
13223;DHT22;6676;45.192;5.722;2023-02-28T05:45:10;3.10;99.90
13223;DHT22;6676;45.192;5.722;2023-02-28T05:48:04;3.10;99.90
13223;DHT22;6676;45.192;5.722;2023-02-28T05:50:55;3.00;99.90
13223;DHT22;6676;45.192;5.722;2023-02-28T05:53:47;2.80;99.90
13223;DHT22;6676;45.192;5.722;2023-02-28T05:56:39;2.80;99.90
13223;DHT22;6676;45.192;5.722;2023-02-28T05:59:32;2.80;99.90
13223;DHT22;6676;45.192;5.722;2023-02-28T06:02:24;2.70;99.90
13223;DHT22;6676;45.192;5.722;2023-02-28T06:05:17;2.70;99.90
13223;DHT22;6676;45.192;5.722;2023-02-28T06:08:09;2.60;99.90
13223;DHT22;6676;45.192;5.722;2023-02-28T06:11:03;2.70;99.90
13223;DHT22;6676;45.192;5.722;2023-02-28T06:13:56;2.70;99.90
13223;DHT22;6676;45.192;5.722;2023-02-28T06:16:49;2.60;99.90
13223;DHT22;6676;45.192;5.722;2023-02-28T06:19:40;2.60;99.90
13223;DHT22;6676;45.192;5.722;2023-02-28T06:22:32;2.40;99.90
13223;DHT22;6676;45.192;5.722;2023-02-28T06:25:23;2.40;99.90
13223;DHT22;6676;45.192;5.722;2023-02-28T06:28:15;2.40;99.90
13223;DHT22;6676;45.192;5.722;2023-02-28T06:31:09;2.30;99.90
13223;DHT22;6676;45.192;5.722;2023-02-28T06:34:01;2.40;99.90
13223;DHT22;6676;45.192;5.722;2023-02-28T06:36:53;2.30;99.90
13223;DHT22;6676;45.192;5.722;2023-02-28T06:39:45;2.40;99.90
13223;DHT22;6676;45.192;5.722;2023-02-28T06:42:36;2.40;99.90
13223;DHT22;6676;45.192;5.722;2023-02-28T06:45:29;2.30;99.90
13223;DHT22;6676;45.192;5.722;2023-02-28T06:48:21;2.30;99.90
13223;DHT22;6676;45.192;5.722;2023-02-28T06:51:14;2.30;99.90
13223;DHT22;6676;45.192;5.722;2023-02-28T06:54:06;2.30;99.90
13223;DHT22;6676;45.192;5.722;2023-02-28T06:56:59;2.30;99.90
13223;DHT22;6676;45.192;5.722;2023-02-28T06:59:51;2.30;99.90
13223;DHT22;6676;45.192;5.722;2023-02-28T07:02:43;2.40;99.90
13223;DHT22;6676;45.192;5.722;2023-02-28T07:05:36;2.40;99.90
13223;DHT22;6676;45.192;5.722;2023-02-28T07:08:28;2.40;99.90
13223;DHT22;6676;45.192;5.722;2023-02-28T07:11:22;2.50;99.90
13223;DHT22;6676;45.192;5.722;2023-02-28T07:14:16;2.50;99.90
13223;DHT22;6676;45.192;5.722;2023-02-28T07:17:09;2.50;99.90
13223;DHT22;6676;45.192;5.722;2023-02-28T07:20:01;2.60;99.90
13223;DHT22;6676;45.192;5.722;2023-02-28T07:22:54;2.50;99.90
13223;DHT22;6676;45.192;5.722;2023-02-28T07:25:46;2.60;99.90
13223;DHT22;6676;45.192;5.722;2023-02-28T07:28:38;2.60;99.90
13223;DHT22;6676;45.192;5.722;2023-02-28T07:31:30;2.60;99.90
13223;DHT22;6676;45.192;5.722;2023-02-28T07:34:22;2.60;99.90
13223;DHT22;6676;45.192;5.722;2023-02-28T07:37:13;2.60;99.90
13223;DHT22;6676;45.192;5.722;2023-02-28T07:40:09;2.70;99.90
13223;DHT22;6676;45.192;5.722;2023-02-28T07:43:02;2.70;99.90
13223;DHT22;6676;45.192;5.722;2023-02-28T07:45:54;2.70;99.90
13223;DHT22;6676;45.192;5.722;2023-02-28T07:48:46;2.60;99.90
13223;DHT22;6676;45.192;5.722;2023-02-28T07:51:37;2.70;99.90
13223;DHT22;6676;45.192;5.722;2023-02-28T07:54:31;2.90;99.90
13223;DHT22;6676;45.192;5.722;2023-02-28T07:57:22;2.90;99.90
13223;DHT22;6676;45.192;5.722;2023-02-28T08:00:16;2.90;99.90
13223;DHT22;6676;45.192;5.722;2023-02-28T08:03:10;3.00;99.90
13223;DHT22;6676;45.192;5.722;2023-02-28T08:06:03;3.00;99.90
13223;DHT22;6676;45.192;5.722;2023-02-28T08:08:57;2.90;99.90
13223;DHT22;6676;45.192;5.722;2023-02-28T08:11:49;2.80;99.90
13223;DHT22;6676;45.192;5.722;2023-02-28T08:14:41;2.80;99.90
13223;DHT22;6676;45.192;5.722;2023-02-28T08:17:32;2.80;99.90
13223;DHT22;6676;45.192;5.722;2023-02-28T08:20:25;3.00;99.90
13223;DHT22;6676;45.192;5.722;2023-02-28T08:23:17;3.10;99.90
13223;DHT22;6676;45.192;5.722;2023-02-28T08:26:09;3.30;99.90
13223;DHT22;6676;45.192;5.722;2023-02-28T08:29:01;3.30;99.90
13223;DHT22;6676;45.192;5.722;2023-02-28T08:32:15;3.50;99.90
13223;DHT22;6676;45.192;5.722;2023-02-28T08:35:20;3.60;99.90
13223;DHT22;6676;45.192;5.722;2023-02-28T08:41:03;3.60;99.90
13223;DHT22;6676;45.192;5.722;2023-02-28T08:43:58;3.80;99.90
13223;DHT22;6676;45.192;5.722;2023-02-28T08:46:53;3.80;99.90
13223;DHT22;6676;45.192;5.722;2023-02-28T08:49:45;4.00;99.90
13223;DHT22;6676;45.192;5.722;2023-02-28T08:52:53;4.10;99.90
13223;DHT22;6676;45.192;5.722;2023-02-28T08:55:44;4.20;99.90
13223;DHT22;6676;45.192;5.722;2023-02-28T08:58:37;4.20;99.90
13223;DHT22;6676;45.192;5.722;2023-02-28T09:01:29;4.20;99.90
13223;DHT22;6676;45.192;5.722;2023-02-28T09:04:22;4.30;99.90
13223;DHT22;6676;45.192;5.722;2023-02-28T09:07:14;4.30;99.90
13223;DHT22;6676;45.192;5.722;2023-02-28T09:10:10;4.30;99.90
13223;DHT22;6676;45.192;5.722;2023-02-28T09:13:02;4.40;99.90
13223;DHT22;6676;45.192;5.722;2023-02-28T09:15:54;4.40;99.90
13223;DHT22;6676;45.192;5.722;2023-02-28T09:18:47;4.30;99.90
13223;DHT22;6676;45.192;5.722;2023-02-28T09:21:39;4.40;99.90
13223;DHT22;6676;45.192;5.722;2023-02-28T09:24:35;4.50;99.90
13223;DHT22;6676;45.192;5.722;2023-02-28T09:27:28;4.60;99.90
13223;DHT22;6676;45.192;5.722;2023-02-28T09:30:20;4.60;99.90
13223;DHT22;6676;45.192;5.722;2023-02-28T09:33:11;4.50;99.90
13223;DHT22;6676;45.192;5.722;2023-02-28T09:36:04;4.50;99.90
13223;DHT22;6676;45.192;5.722;2023-02-28T09:38:56;4.70;99.90
13223;DHT22;6676;45.192;5.722;2023-02-28T09:41:50;4.60;99.90
13223;DHT22;6676;45.192;5.722;2023-02-28T09:44:43;4.70;99.90
13223;DHT22;6676;45.192;5.722;2023-02-28T09:47:39;4.80;99.90
13223;DHT22;6676;45.192;5.722;2023-02-28T09:50:35;4.80;99.90
13223;DHT22;6676;45.192;5.722;2023-02-28T09:56:56;4.90;99.90
13223;DHT22;6676;45.192;5.722;2023-02-28T10:00:03;5.10;99.90
13223;DHT22;6676;45.192;5.722;2023-02-28T10:03:25;5.10;99.90
13223;DHT22;6676;45.192;5.722;2023-02-28T10:06:19;5.20;99.90
13223;DHT22;6676;45.192;5.722;2023-02-28T10:09:15;5.30;99.90
13223;DHT22;6676;45.192;5.722;2023-02-28T10:12:17;5.40;99.90
13223;DHT22;6676;45.192;5.722;2023-02-28T10:18:29;5.50;99.90
13223;DHT22;6676;45.192;5.722;2023-02-28T10:21:24;5.60;99.90
13223;DHT22;6676;45.192;5.722;2023-02-28T10:24:26;5.40;99.90
13223;DHT22;6676;45.192;5.722;2023-02-28T10:27:37;5.40;99.90
13223;DHT22;6676;45.192;5.722;2023-02-28T10:30:32;5.20;99.90
13223;DHT22;6676;45.192;5.722;2023-02-28T10:33:27;5.30;99.90
13223;DHT22;6676;45.192;5.722;2023-02-28T10:36:20;5.20;99.90
13223;DHT22;6676;45.192;5.722;2023-02-28T10:39:51;5.30;99.90
13223;DHT22;6676;45.192;5.722;2023-02-28T10:43:15;5.20;99.90
13223;DHT22;6676;45.192;5.722;2023-02-28T10:46:04;5.20;99.90
13223;DHT22;6676;45.192;5.722;2023-02-28T10:49:12;5.30;99.90
13223;DHT22;6676;45.192;5.722;2023-02-28T10:52:07;5.30;99.90
13223;DHT22;6676;45.192;5.722;2023-02-28T10:55:21;5.20;99.90
13223;DHT22;6676;45.192;5.722;2023-02-28T10:58:24;5.30;99.90
13223;DHT22;6676;45.192;5.722;2023-02-28T11:01:19;5.20;99.90
13223;DHT22;6676;45.192;5.722;2023-02-28T11:04:23;5.20;99.90
13223;DHT22;6676;45.192;5.722;2023-02-28T11:07:31;5.20;99.90
13223;DHT22;6676;45.192;5.722;2023-02-28T11:10:28;5.00;99.90
13223;DHT22;6676;45.192;5.722;2023-02-28T11:13:24;5.10;99.90
13223;DHT22;6676;45.192;5.722;2023-02-28T11:16:15;5.30;99.90
13223;DHT22;6676;45.192;5.722;2023-02-28T11:19:15;5.40;99.90
13223;DHT22;6676;45.192;5.722;2023-02-28T11:22:10;5.30;99.90
13223;DHT22;6676;45.192;5.722;2023-02-28T11:25:19;5.20;99.90
13223;DHT22;6676;45.192;5.722;2023-02-28T11:28:23;5.30;99.90
13223;DHT22;6676;45.192;5.722;2023-02-28T11:31:19;5.40;99.90
13223;DHT22;6676;45.192;5.722;2023-02-28T11:34:25;5.60;99.90
13223;DHT22;6676;45.192;5.722;2023-02-28T11:37:20;5.60;99.90
13223;DHT22;6676;45.192;5.722;2023-02-28T11:40:15;5.60;99.90
13223;DHT22;6676;45.192;5.722;2023-02-28T11:43:19;5.70;99.90
13223;DHT22;6676;45.192;5.722;2023-02-28T11:46:22;5.70;99.90
13223;DHT22;6676;45.192;5.722;2023-02-28T11:49:22;6.00;99.90
13223;DHT22;6676;45.192;5.722;2023-02-28T11:52:21;6.00;99.90
13223;DHT22;6676;45.192;5.722;2023-02-28T11:55:21;5.80;99.90
13223;DHT22;6676;45.192;5.722;2023-02-28T11:58:21;5.70;99.90
13223;DHT22;6676;45.192;5.722;2023-02-28T12:01:30;5.50;99.90
13223;DHT22;6676;45.192;5.722;2023-02-28T12:04:26;5.40;99.90
13223;DHT22;6676;45.192;5.722;2023-02-28T12:07:21;5.30;99.90
13223;DHT22;6676;45.192;5.722;2023-02-28T12:10:21;5.20;99.90
13223;DHT22;6676;45.192;5.722;2023-02-28T12:13:18;5.30;99.90
13223;DHT22;6676;45.192;5.722;2023-02-28T12:16:46;5.20;99.90
13223;DHT22;6676;45.192;5.722;2023-02-28T12:19:44;5.10;99.90
13223;DHT22;6676;45.192;5.722;2023-02-28T12:25:59;5.20;99.90
13223;DHT22;6676;45.192;5.722;2023-02-28T12:28:57;5.20;99.90
13223;DHT22;6676;45.192;5.722;2023-02-28T12:31:53;5.10;99.90
13223;DHT22;6676;45.192;5.722;2023-02-28T12:34:47;5.20;99.90
13223;DHT22;6676;45.192;5.722;2023-02-28T12:37:43;5.20;99.90
13223;DHT22;6676;45.192;5.722;2023-02-28T12:40:42;5.10;99.90
13223;DHT22;6676;45.192;5.722;2023-02-28T12:43:39;5.20;99.90
13223;DHT22;6676;45.192;5.722;2023-02-28T12:46:34;5.30;99.90
13223;DHT22;6676;45.192;5.722;2023-02-28T12:49:29;5.40;99.90
13223;DHT22;6676;45.192;5.722;2023-02-28T12:52:25;5.40;99.90
13223;DHT22;6676;45.192;5.722;2023-02-28T12:55:21;5.40;99.90
13223;DHT22;6676;45.192;5.722;2023-02-28T12:58:20;5.30;99.90
13223;DHT22;6676;45.192;5.722;2023-02-28T13:01:34;5.30;99.90
13223;DHT22;6676;45.192;5.722;2023-02-28T13:04:33;5.30;99.90
13223;DHT22;6676;45.192;5.722;2023-02-28T13:14:03;5.40;99.90
13223;DHT22;6676;45.192;5.722;2023-02-28T13:17:01;5.30;99.90
13223;DHT22;6676;45.192;5.722;2023-02-28T13:19:58;5.40;99.90
13223;DHT22;6676;45.192;5.722;2023-02-28T13:22:56;5.50;99.90
13223;DHT22;6676;45.192;5.722;2023-02-28T13:25:54;5.60;99.90
13223;DHT22;6676;45.192;5.722;2023-02-28T13:29:06;5.60;99.90
13223;DHT22;6676;45.192;5.722;2023-02-28T13:32:20;5.50;99.90
13223;DHT22;6676;45.192;5.722;2023-02-28T13:42:34;5.70;99.90
13223;DHT22;6676;45.192;5.722;2023-02-28T13:45:29;5.80;99.90
13223;DHT22;6676;45.192;5.722;2023-02-28T13:56:47;5.70;99.90
13223;DHT22;6676;45.192;5.722;2023-02-28T14:00:05;5.60;99.90
13223;DHT22;6676;45.192;5.722;2023-02-28T14:03:26;5.70;99.90
13223;DHT22;6676;45.192;5.722;2023-02-28T14:06:25;5.60;99.90
13223;DHT22;6676;45.192;5.722;2023-02-28T14:09:24;5.70;99.90
13223;DHT22;6676;45.192;5.722;2023-02-28T14:15:57;5.80;99.90
13223;DHT22;6676;45.192;5.722;2023-02-28T14:18:54;5.80;99.90
13223;DHT22;6676;45.192;5.722;2023-02-28T14:25:39;6.00;99.90
13223;DHT22;6676;45.192;5.722;2023-02-28T14:28:47;6.10;99.90
13223;DHT22;6676;45.192;5.722;2023-02-28T14:31:44;6.00;99.90
13223;DHT22;6676;45.192;5.722;2023-02-28T14:34:43;5.80;99.90
13223;DHT22;6676;45.192;5.722;2023-02-28T14:40:27;5.80;99.90
13223;DHT22;6676;45.192;5.722;2023-02-28T14:43:24;5.70;99.90
13223;DHT22;6676;45.192;5.722;2023-02-28T14:46:17;5.70;99.90
13223;DHT22;6676;45.192;5.722;2023-02-28T14:49:15;5.50;99.90
13223;DHT22;6676;45.192;5.722;2023-02-28T15:18:47;5.20;99.90
13223;DHT22;6676;45.192;5.722;2023-02-28T15:21:42;5.10;99.90
13223;DHT22;6676;45.192;5.722;2023-02-28T15:24:39;5.10;99.90
13223;DHT22;6676;45.192;5.722;2023-02-28T15:27:33;5.10;99.90
13223;DHT22;6676;45.192;5.722;2023-02-28T15:30:29;5.10;99.90
13223;DHT22;6676;45.192;5.722;2023-02-28T15:33:23;5.00;99.90
13223;DHT22;6676;45.192;5.722;2023-02-28T15:36:17;5.00;99.90
13223;DHT22;6676;45.192;5.722;2023-02-28T15:39:22;5.10;99.90
13223;DHT22;6676;45.192;5.722;2023-02-28T15:42:18;5.00;99.90
13223;DHT22;6676;45.192;5.722;2023-02-28T15:45:30;5.00;99.90
13223;DHT22;6676;45.192;5.722;2023-02-28T15:48:23;5.00;99.90
13223;DHT22;6676;45.192;5.722;2023-02-28T15:51:20;5.00;99.90
13223;DHT22;6676;45.192;5.722;2023-02-28T15:54:16;5.00;99.90
13223;DHT22;6676;45.192;5.722;2023-02-28T15:57:17;5.10;99.90
13223;DHT22;6676;45.192;5.722;2023-02-28T16:00:15;5.00;99.90
13223;DHT22;6676;45.192;5.722;2023-02-28T16:03:26;4.90;99.90
13223;DHT22;6676;45.192;5.722;2023-02-28T16:06:38;4.90;99.90
13223;DHT22;6676;45.192;5.722;2023-02-28T16:09:32;4.80;99.90
13223;DHT22;6676;45.192;5.722;2023-02-28T16:12:28;4.90;99.90
13223;DHT22;6676;45.192;5.722;2023-02-28T16:15:22;4.90;99.90
13223;DHT22;6676;45.192;5.722;2023-02-28T16:18:15;4.80;99.90
13223;DHT22;6676;45.192;5.722;2023-02-28T16:21:08;4.80;99.90
13223;DHT22;6676;45.192;5.722;2023-02-28T16:23:59;4.80;99.90
13223;DHT22;6676;45.192;5.722;2023-02-28T16:26:53;4.70;99.90
13223;DHT22;6676;45.192;5.722;2023-02-28T16:29:46;4.80;99.90
13223;DHT22;6676;45.192;5.722;2023-02-28T16:32:38;4.80;99.90
13223;DHT22;6676;45.192;5.722;2023-02-28T16:35:30;4.80;99.90
13223;DHT22;6676;45.192;5.722;2023-02-28T16:38:21;4.80;99.90
13223;DHT22;6676;45.192;5.722;2023-02-28T16:41:17;4.80;99.90
13223;DHT22;6676;45.192;5.722;2023-02-28T16:44:13;4.70;99.90
13223;DHT22;6676;45.192;5.722;2023-02-28T16:47:05;4.80;99.90
13223;DHT22;6676;45.192;5.722;2023-02-28T16:49:57;4.80;99.90
13223;DHT22;6676;45.192;5.722;2023-02-28T16:52:49;4.70;99.90
13223;DHT22;6676;45.192;5.722;2023-02-28T16:55:42;4.70;99.90
13223;DHT22;6676;45.192;5.722;2023-02-28T16:58:34;4.70;99.90
13223;DHT22;6676;45.192;5.722;2023-02-28T17:01:26;4.60;99.90
13223;DHT22;6676;45.192;5.722;2023-02-28T17:04:19;4.70;99.90
13223;DHT22;6676;45.192;5.722;2023-02-28T17:07:13;4.70;99.90
13223;DHT22;6676;45.192;5.722;2023-02-28T17:10:14;4.70;99.90
13223;DHT22;6676;45.192;5.722;2023-02-28T17:13:06;4.70;99.90
13223;DHT22;6676;45.192;5.722;2023-02-28T17:16:05;4.70;99.90
13223;DHT22;6676;45.192;5.722;2023-02-28T17:18:58;4.70;99.90
13223;DHT22;6676;45.192;5.722;2023-02-28T17:21:50;4.70;99.90
13223;DHT22;6676;45.192;5.722;2023-02-28T17:24:42;4.70;99.90
13223;DHT22;6676;45.192;5.722;2023-02-28T17:27:39;4.70;99.90
13223;DHT22;6676;45.192;5.722;2023-02-28T17:30:32;4.60;99.90
13223;DHT22;6676;45.192;5.722;2023-02-28T17:33:25;4.70;99.90
13223;DHT22;6676;45.192;5.722;2023-02-28T17:36:20;4.70;99.90
13223;DHT22;6676;45.192;5.722;2023-02-28T17:39:15;4.70;99.90
13223;DHT22;6676;45.192;5.722;2023-02-28T17:42:10;4.70;99.90
13223;DHT22;6676;45.192;5.722;2023-02-28T17:45:02;4.70;99.90
13223;DHT22;6676;45.192;5.722;2023-02-28T17:47:53;4.70;99.90
13223;DHT22;6676;45.192;5.722;2023-02-28T17:50:45;4.70;99.90
13223;DHT22;6676;45.192;5.722;2023-02-28T17:53:38;4.70;99.90
13223;DHT22;6676;45.192;5.722;2023-02-28T17:56:30;4.70;99.90
13223;DHT22;6676;45.192;5.722;2023-02-28T17:59:22;4.70;99.90
13223;DHT22;6676;45.192;5.722;2023-02-28T18:02:14;4.70;99.90
13223;DHT22;6676;45.192;5.722;2023-02-28T18:05:09;4.70;99.90
13223;DHT22;6676;45.192;5.722;2023-02-28T18:08:00;4.70;99.90
13223;DHT22;6676;45.192;5.722;2023-02-28T18:10:52;4.60;99.90
13223;DHT22;6676;45.192;5.722;2023-02-28T18:13:44;4.70;99.90
13223;DHT22;6676;45.192;5.722;2023-02-28T18:16:38;4.70;99.90
13223;DHT22;6676;45.192;5.722;2023-02-28T18:19:29;4.70;99.90
13223;DHT22;6676;45.192;5.722;2023-02-28T18:22:20;4.70;99.90
13223;DHT22;6676;45.192;5.722;2023-02-28T18:25:13;4.70;99.90
13223;DHT22;6676;45.192;5.722;2023-02-28T18:28:06;4.70;99.90
13223;DHT22;6676;45.192;5.722;2023-02-28T18:30:59;4.70;99.90
13223;DHT22;6676;45.192;5.722;2023-02-28T18:33:51;4.70;99.90
13223;DHT22;6676;45.192;5.722;2023-02-28T18:36:43;4.70;99.90
13223;DHT22;6676;45.192;5.722;2023-02-28T18:39:36;4.70;99.90
13223;DHT22;6676;45.192;5.722;2023-02-28T18:42:31;4.70;99.90
13223;DHT22;6676;45.192;5.722;2023-02-28T18:45:23;4.70;99.90
13223;DHT22;6676;45.192;5.722;2023-02-28T18:48:14;4.70;99.90
13223;DHT22;6676;45.192;5.722;2023-02-28T18:51:11;4.70;99.90
13223;DHT22;6676;45.192;5.722;2023-02-28T18:54:03;4.70;99.90
13223;DHT22;6676;45.192;5.722;2023-02-28T18:56:54;4.70;99.90
13223;DHT22;6676;45.192;5.722;2023-02-28T18:59:46;4.70;99.90
13223;DHT22;6676;45.192;5.722;2023-02-28T19:02:37;4.70;99.90
13223;DHT22;6676;45.192;5.722;2023-02-28T19:05:32;4.60;99.90
13223;DHT22;6676;45.192;5.722;2023-02-28T19:08:27;4.60;99.90
13223;DHT22;6676;45.192;5.722;2023-02-28T19:11:19;4.60;99.90
13223;DHT22;6676;45.192;5.722;2023-02-28T19:14:11;4.60;99.90
13223;DHT22;6676;45.192;5.722;2023-02-28T19:17:03;4.60;99.90
13223;DHT22;6676;45.192;5.722;2023-02-28T19:19:55;4.60;99.90
13223;DHT22;6676;45.192;5.722;2023-02-28T19:22:46;4.60;99.90
13223;DHT22;6676;45.192;5.722;2023-02-28T19:25:41;4.60;99.90
13223;DHT22;6676;45.192;5.722;2023-02-28T19:28:33;4.60;99.90
13223;DHT22;6676;45.192;5.722;2023-02-28T19:31:25;4.60;99.90
13223;DHT22;6676;45.192;5.722;2023-02-28T19:34:17;4.50;99.90
13223;DHT22;6676;45.192;5.722;2023-02-28T19:37:09;4.50;99.90
13223;DHT22;6676;45.192;5.722;2023-02-28T19:40:00;4.50;99.90
13223;DHT22;6676;45.192;5.722;2023-02-28T19:42:53;4.50;99.90
13223;DHT22;6676;45.192;5.722;2023-02-28T19:45:44;4.40;99.90
13223;DHT22;6676;45.192;5.722;2023-02-28T19:48:36;4.40;99.90
13223;DHT22;6676;45.192;5.722;2023-02-28T19:51:27;4.50;99.90
13223;DHT22;6676;45.192;5.722;2023-02-28T19:54:19;4.40;99.90
13223;DHT22;6676;45.192;5.722;2023-02-28T19:57:11;4.40;99.90
13223;DHT22;6676;45.192;5.722;2023-02-28T20:00:03;4.40;99.90
13223;DHT22;6676;45.192;5.722;2023-02-28T20:02:56;4.40;99.90
13223;DHT22;6676;45.192;5.722;2023-02-28T20:05:57;4.30;99.90
13223;DHT22;6676;45.192;5.722;2023-02-28T20:08:41;4.30;99.90
13223;DHT22;6676;45.192;5.722;2023-02-28T20:11:36;4.30;99.90
13223;DHT22;6676;45.192;5.722;2023-02-28T20:14:28;4.30;99.90
13223;DHT22;6676;45.192;5.722;2023-02-28T20:17:19;4.20;99.90
13223;DHT22;6676;45.192;5.722;2023-02-28T20:20:12;4.20;99.90
13223;DHT22;6676;45.192;5.722;2023-02-28T20:23:04;4.20;99.90
13223;DHT22;6676;45.192;5.722;2023-02-28T20:25:59;4.20;99.90
13223;DHT22;6676;45.192;5.722;2023-02-28T20:28:51;4.10;99.90
13223;DHT22;6676;45.192;5.722;2023-02-28T20:31:43;4.10;99.90
13223;DHT22;6676;45.192;5.722;2023-02-28T20:34:35;4.10;99.90
13223;DHT22;6676;45.192;5.722;2023-02-28T20:37:27;4.10;99.90